Terminal Aerodrome Forecast
Issued by NWS Paducah, KY

Home | Current Version | Previous Version | Text Only | Print | Product List | Glossary On
Versions: 1 2 3 4 5 6 7 8 9 10 11 12 13 14 15 16 17 18
625
FTUS43 KPAH 061612 AAE
TAFPAH
TAF AMD
KPAH 061612Z 0616/0712 33009KT P6SM OVC008
     FM061700 33012G20KT P6SM OVC012
     FM062200 33010KT P6SM BKN035
     FM070300 35005KT P6SM SCT250=

USA.gov is the U.S. government's official web portal to all federal, state and local government web resources and services.